Ewell, Maryland
Current Conditions -  °F | °C
As of 10:53 PM on Wednesday 22 Oct 2014 (Local Time) from KNUI Reporting Station
Overcast Overcast  
Wind Chill: 54°   Ceiling: 3800
Heat Index: 54°   Visibility: 10mi
Dew Point: 45°   Wind: 10mph
Humidity: 72%   Direction: 310°NW
Pressure: 29.89"   Gusts: 18mph
Location:  37.99°N, 76.03°W
Report Text: KNUI 230253Z AUTO 31009G16KT 10SM BKN038 OVC055 12/07 A2989 RMK AO2 SLP119 60000 T01220072 58002
Loading
Personal Weather Stations






























Interactive Weather Map
Tropical Storm Tracking
New forecast layout! Learn more

10-Day Weather Forecast

Advertisements
Track Severe Weather on mobile